Time;durP1;ratioP1;P1;durP2;ratioP2;P2;SDS_P1;SDS_P2;PMS_P1;PMS_P2;Temp;Humidity;BMP_temperature;BMP_pressure;BME280_temperature;BME280_humidity;BME280_pressure;Samples;Min_cycle;Max_cycle;Signal;HPM_P1;HPM_P2
2021/10/18 00:00:44;;;;;;;56.67;24.75;;;;;;;6.09;100.00;96057.09;5025206;28;20038;-78
2021/10/18 00:03:09;;;;;;;58.05;24.48;;;;;;;6.09;100.00;96057.09;5019252;28;20062;-78
2021/10/18 00:05:35;;;;;;;56.47;23.65;;;;;;;6.15;100.00;96045.72;5035644;28;20799;-77
2021/10/18 00:08:01;;;;;;;59.30;24.30;;;;;;;6.14;100.00;96057.22;5034600;28;20701;-78
2021/10/18 00:10:26;;;;;;;63.35;24.95;;;;;;;6.09;100.00;96062.31;5028901;28;20048;-78
2021/10/18 00:12:52;;;;;;;60.70;24.52;;;;;;;5.87;100.00;96055.00;5017123;28;20041;-78
2021/10/18 00:15:18;;;;;;;91.57;25.95;;;;;;;5.93;100.00;96059.31;5034184;28;20042;-78
2021/10/18 00:17:44;;;;;;;57.67;24.52;;;;;;;5.89;100.00;96066.03;5040484;28;20041;-79
2021/10/18 00:20:13;;;;;;;64.43;24.90;;;;;;;5.92;100.00;96067.38;5015334;28;20045;-78
2021/10/18 00:22:38;;;;;;;59.75;25.67;;;;;;;5.95;100.00;96067.72;5028834;28;20045;-77
2021/10/18 00:25:04;;;;;;;207.40;28.67;;;;;;;5.82;100.00;96070.53;5028050;28;20412;-78
2021/10/18 00:27:30;;;;;;;66.97;25.70;;;;;;;5.83;100.00;96067.72;5027096;28;20097;-78
2021/10/18 00:29:55;;;;;;;79.28;28.20;;;;;;;5.83;100.00;96074.75;5016064;28;20057;-79
2021/10/18 00:32:21;;;;;;;66.63;27.15;;;;;;;5.79;100.00;96073.59;5007356;28;20045;-78
2021/10/18 00:34:46;;;;;;;69.70;26.95;;;;;;;5.79;100.00;96068.38;5039576;28;20068;-78
2021/10/18 00:37:12;;;;;;;74.30;26.52;;;;;;;5.85;100.00;96067.50;5033125;28;20045;-78
2021/10/18 00:39:38;;;;;;;76.50;26.25;;;;;;;5.85;100.00;96073.50;5042147;28;20045;-78
2021/10/18 00:42:03;;;;;;;71.75;27.98;;;;;;;5.89;100.00;96063.41;5033531;28;20038;-80
2021/10/18 00:44:31;;;;;;;73.53;28.00;;;;;;;5.97;100.00;96076.16;5027424;28;20041;-78
2021/10/18 00:46:57;;;;;;;60.15;26.20;;;;;;;6.01;100.00;96074.69;4997885;28;20450;-78
2021/10/18 00:49:23;;;;;;;62.03;26.48;;;;;;;6.11;100.00;96070.72;5029003;28;20092;-78
2021/10/18 00:51:49;;;;;;;62.15;24.60;;;;;;;6.20;100.00;96064.13;5033402;28;20069;-78
2021/10/18 00:54:14;;;;;;;58.50;23.88;;;;;;;6.36;100.00;96062.66;5026796;28;20044;-79
2021/10/18 00:56:40;;;;;;;55.55;25.08;;;;;;;6.32;100.00;96062.31;5036748;28;20052;-79
2021/10/18 00:59:07;;;;;;;61.53;25.27;;;;;;;6.26;100.00;96065.81;5040926;28;20033;-78
2021/10/18 01:01:33;;;;;;;60.40;25.33;;;;;;;6.36;100.00;96065.25;5033805;28;20105;-79
2021/10/18 01:04:01;;;;;;;61.00;25.60;;;;;;;6.18;100.00;96074.03;5024711;28;20396;-78
2021/10/18 01:06:26;;;;;;;62.22;25.55;;;;;;;6.04;100.00;96076.84;5032722;28;20582;-78
2021/10/18 01:08:52;;;;;;;60.10;25.48;;;;;;;6.10;100.00;96074.34;5032667;28;20037;-78
2021/10/18 01:11:18;;;;;;;59.15;24.95;;;;;;;6.19;100.00;96067.75;5026466;28;20053;-79
2021/10/18 01:13:43;;;;;;;61.50;25.77;;;;;;;6.26;100.00;96063.22;5029480;28;20041;-78
2021/10/18 01:16:09;;;;;;;56.75;24.60;;;;;;;6.35;100.00;96061.84;5031648;28;20076;-77
2021/10/18 01:18:35;;;;;;;55.40;23.77;;;;;;;6.13;100.00;96064.22;5039418;28;20033;-78
2021/10/18 01:21:01;;;;;;;68.43;26.25;;;;;;;6.04;100.00;96061.16;5045186;28;20041;-78
2021/10/18 01:23:27;;;;;;;61.80;25.23;;;;;;;6.12;100.00;96051.41;5045180;28;20515;-78
2021/10/18 01:25:52;;;;;;;81.10;26.23;;;;;;;5.93;100.00;96059.31;5014098;28;20042;-79
2021/10/18 01:28:18;;;;;;;66.75;25.85;;;;;;;5.90;100.00;96059.75;5031991;28;20045;-78
2021/10/18 01:30:44;;;;;;;76.68;26.13;;;;;;;6.04;100.00;96055.94;5012149;28;20503;-79
2021/10/18 01:33:10;;;;;;;70.70;27.13;;;;;;;5.92;100.00;96057.72;5003096;28;20055;-79
2021/10/18 01:35:35;;;;;;;62.88;25.25;;;;;;;6.02;100.00;96068.44;5036390;28;20044;-78
2021/10/18 01:38:01;;;;;;;66.85;24.88;;;;;;;5.99;100.00;96066.28;5031979;28;20052;-78
2021/10/18 01:40:27;;;;;;;80.88;26.98;;;;;;;5.98;100.00;96071.75;5039952;28;20041;-79
2021/10/18 01:42:54;;;;;;;84.03;27.10;;;;;;;5.94;100.00;96060.13;5030136;28;20113;-78
2021/10/18 01:45:20;;;;;;;72.93;24.73;;;;;;;5.89;100.00;96063.41;5028496;28;20052;-79
2021/10/18 01:47:47;;;;;;;69.85;25.15;;;;;;;5.88;100.00;96067.81;5039409;28;20049;-79
2021/10/18 01:50:22;;;;;;;69.93;26.92;;;;;;;5.92;100.00;96073.41;5044296;28;20478;-78
2021/10/18 01:52:49;;;;;;;79.72;24.73;;;;;;;5.94;100.00;96071.34;5036395;28;20052;-77
2021/10/18 01:55:16;;;;;;;77.50;24.50;;;;;;;6.20;100.00;96064.13;5027631;28;20049;-79
2021/10/18 01:57:42;;;;;;;64.45;25.13;;;;;;;6.06;100.00;96068.78;5031897;28;20077;-79
2021/10/18 02:00:09;;;;;;;72.80;25.70;;;;;;;6.09;100.00;96078.00;5028954;28;20049;-79
2021/10/18 02:02:34;;;;;;;73.32;26.20;;;;;;;5.89;100.00;96071.25;5018619;28;20049;-78
2021/10/18 02:05:00;;;;;;;79.55;26.40;;;;;;;5.86;100.00;96079.50;5029267;28;20046;-78
2021/10/18 02:07:25;;;;;;;76.60;25.67;;;;;;;5.88;100.00;96082.72;5012520;28;20567;-79
2021/10/18 02:09:54;;;;;;;84.68;25.42;;;;;;;5.88;100.00;96074.88;5023939;28;20038;-78
2021/10/18 02:12:21;;;;;;;64.10;24.38;;;;;;;5.88;100.00;96072.25;5017692;28;20041;-78
2021/10/18 02:14:46;;;;;;;67.65;25.25;;;;;;;5.86;100.00;96079.50;5036687;28;20041;-78
2021/10/18 02:17:12;;;;;;;119.30;26.20;;;;;;;5.80;100.00;96075.97;5031600;28;20048;-78
2021/10/18 02:19:38;;;;;;;81.63;26.95;;;;;;;5.88;100.00;96078.28;5030815;28;20038;-79
2021/10/18 02:22:03;;;;;;;97.07;26.05;;;;;;;5.79;100.00;96073.59;5030995;28;20172;-79
2021/10/18 02:24:29;;;;;;;125.45;26.67;;;;;;;5.75;100.00;96072.44;5029621;28;20048;-78
2021/10/18 02:26:54;;;;;;;77.10;25.80;;;;;;;5.82;100.00;96067.91;5030369;28;20138;-78
2021/10/18 02:29:20;;;;;;;74.72;24.45;;;;;;;5.65;100.00;96068.59;5031479;28;20042;-79
2021/10/18 02:31:46;;;;;;;98.35;26.13;;;;;;;5.78;100.00;96072.03;5029649;28;20041;-79
2021/10/18 02:34:11;;;;;;;98.80;27.23;;;;;;;5.75;100.00;96077.66;5042012;28;20063;-79
2021/10/18 02:36:37;;;;;;;135.25;26.48;;;;;;;5.75;100.00;96077.66;5034697;28;20076;-78
2021/10/18 02:39:02;;;;;;;66.85;23.63;;;;;;;5.75;100.00;96069.84;5042121;28;20507;-78
2021/10/18 02:41:28;;;;;;;76.72;24.85;;;;;;;5.68;100.00;96073.34;5029619;28;20069;-79
2021/10/18 02:43:54;;;;;;;74.75;22.95;;;;;;;5.96;100.00;96074.56;5030067;28;20390;-80
2021/10/18 02:46:19;;;;;;;80.20;22.20;;;;;;;6.07;100.00;96081.63;5015594;28;20052;-78
2021/10/18 02:48:44;;;;;;;99.18;24.15;;;;;;;5.87;100.00;96086.34;5050030;28;20044;-78
2021/10/18 02:51:10;;;;;;;87.07;25.05;;;;;;;5.98;100.00;96088.22;5047842;28;20052;-78
2021/10/18 02:53:36;;;;;;;59.83;22.27;;;;;;;6.12;100.00;96083.56;5025781;28;20042;-78
2021/10/18 02:56:01;;;;;;;56.75;21.30;;;;;;;6.00;100.00;96080.94;5039673;28;20052;-79
2021/10/18 02:58:27;;;;;;;69.45;22.00;;;;;;;6.11;100.00;96078.56;5033824;28;20045;-79
2021/10/18 03:00:52;;;;;;;71.10;20.67;;;;;;;6.06;100.00;96074.81;5018479;28;20045;-78
2021/10/18 03:03:18;;;;;;;76.55;23.02;;;;;;;5.71;100.00;96088.56;5015399;28;20474;-78
2021/10/18 03:05:43;;;;;;;93.75;22.60;;;;;;;5.56;100.00;96088.22;5031208;28;20511;-78
2021/10/18 03:08:09;;;;;;;88.70;22.67;;;;;;;5.67;100.00;96082.19;5030168;28;20432;-77
2021/10/18 03:10:39;;;;;;;68.55;23.85;;;;;;;5.66;100.00;96075.41;5030215;28;20120;-78
2021/10/18 03:13:06;;;;;;;85.40;23.42;;;;;;;5.51;100.00;96088.06;5025779;28;20049;-78
2021/10/18 03:15:32;;;;;;;75.43;23.15;;;;;;;5.69;100.00;96080.19;5036608;28;20034;-78
2021/10/18 03:17:58;;;;;;;58.80;21.17;;;;;;;5.82;100.00;96078.38;5040655;28;20052;-79
2021/10/18 03:20:24;;;;;;;56.50;20.65;;;;;;;5.93;100.00;96084.66;5044271;28;20098;-79
2021/10/18 03:22:49;;;;;;;53.92;20.50;;;;;;;5.94;100.00;96084.41;5037730;28;20752;-78
2021/10/18 03:25:14;;;;;;;59.42;21.13;;;;;;;5.93;100.00;96080.19;5029567;28;20076;-78
2021/10/18 03:27:40;;;;;;;53.17;20.48;;;;;;;5.90;100.00;96091.09;5023003;28;20128;-77
2021/10/18 03:30:06;;;;;;;62.45;21.88;;;;;;;5.81;100.00;96092.47;5030519;28;20057;-78
2021/10/18 03:32:32;;;;;;;71.38;21.63;;;;;;;5.85;100.00;96094.41;5030953;28;20514;-78
2021/10/18 03:34:57;;;;;;;63.53;21.02;;;;;;;5.80;100.00;96091.66;5036412;28;20082;-78
2021/10/18 03:37:23;;;;;;;96.63;20.60;;;;;;;5.80;100.00;96090.88;5029205;28;20509;-78
2021/10/18 03:39:48;;;;;;;52.42;19.90;;;;;;;5.77;100.00;96088.72;5046115;28;20045;-77
2021/10/18 03:42:14;;;;;;;80.68;23.20;;;;;;;5.70;100.00;96091.41;5029352;28;20037;-78
2021/10/18 03:44:39;;;;;;;57.55;21.33;;;;;;;5.67;100.00;96097.88;5026097;28;20087;-77
2021/10/18 03:47:05;;;;;;;61.75;21.13;;;;;;;5.72;100.00;96095.41;5018467;28;20041;-78
2021/10/18 03:49:31;;;;;;;147.63;23.42;;;;;;;5.66;100.00;96096.31;5033572;28;20052;-78
2021/10/18 03:51:57;;;;;;;94.93;22.15;;;;;;;5.59;100.00;96098.22;5034380;28;20069;-78
2021/10/18 03:54:22;;;;;;;123.22;22.92;;;;;;;5.57;100.00;96097.63;5033250;28;20040;-79
2021/10/18 03:56:48;;;;;;;125.85;20.85;;;;;;;5.53;100.00;96101.69;5043258;28;20037;-78
2021/10/18 03:59:14;;;;;;;101.97;20.08;;;;;;;5.53;100.00;96117.34;5042392;28;20034;-78
2021/10/18 04:01:39;;;;;;;142.25;20.55;;;;;;;5.46;100.00;96108.81;5050005;28;20076;-78
2021/10/18 04:04:05;;;;;;;110.85;19.75;;;;;;;5.42;100.00;96120.75;5031885;28;20395;-78
2021/10/18 04:06:30;;;;;;;75.40;19.10;;;;;;;5.31;100.00;96125.66;5034478;28;20506;-78
2021/10/18 04:08:56;;;;;;;90.97;20.50;;;;;;;5.31;100.00;96135.31;5016000;28;20069;-77
2021/10/18 04:11:22;;;;;;;115.40;20.08;;;;;;;5.38;100.00;96136.81;5034309;28;20553;-78
2021/10/18 04:13:48;;;;;;;96.32;19.90;;;;;;;5.37;100.00;96145.69;5011243;28;20037;-78
2021/10/18 04:16:13;;;;;;;101.47;22.35;;;;;;;5.17;100.00;96145.13;5020428;28;20049;-78
2021/10/18 04:18:39;;;;;;;133.90;22.83;;;;;;;5.11;100.00;96161.66;5025282;28;20490;-78
2021/10/18 04:21:06;;;;;;;100.90;22.50;;;;;;;5.09;100.00;96158.47;5044814;28;20045;-79
2021/10/18 04:23:32;;;;;;;66.30;21.70;;;;;;;5.14;100.00;96166.44;5018636;28;20049;-78
2021/10/18 04:25:58;;;;;;;129.60;24.27;;;;;;;5.16;100.00;96169.63;5017481;28;20056;-78
2021/10/18 04:28:24;;;;;;;113.00;23.83;;;;;;;5.17;100.00;96171.22;5024009;28;20041;-78
2021/10/18 04:30:49;;;;;;;73.28;21.80;;;;;;;5.34;100.00;96161.78;5033958;28;20041;-78
2021/10/18 04:33:15;;;;;;;99.90;22.75;;;;;;;5.49;100.00;96152.78;5032832;28;20033;-79
2021/10/18 04:35:40;;;;;;;70.28;22.25;;;;;;;5.52;100.00;96162.78;5035417;28;20048;-79
2021/10/18 04:38:06;;;;;;;158.07;23.85;;;;;;;5.35;100.00;96168.59;5034838;28;20064;-78
2021/10/18 04:40:32;;;;;;;88.07;22.70;;;;;;;5.49;100.00;96169.22;5031911;28;20067;-78
2021/10/18 04:42:58;;;;;;;86.13;23.00;;;;;;;5.68;100.00;96177.03;5019327;28;20049;-79
2021/10/18 04:45:25;;;;;;;79.97;21.30;;;;;;;5.65;100.00;96180.88;5029663;28;20037;-78
2021/10/18 04:47:51;;;;;;;74.18;21.85;;;;;;;5.61;100.00;96178.94;5032883;28;20670;-78
2021/10/18 04:50:18;;;;;;;92.82;23.23;;;;;;;5.71;100.00;96181.81;5034396;28;20333;-77
2021/10/18 04:52:44;;;;;;;64.75;22.73;;;;;;;5.65;100.00;96183.47;5033972;28;20450;-78
2021/10/18 04:55:10;;;;;;;73.13;23.27;;;;;;;5.51;100.00;96187.28;5033617;28;20050;-79
2021/10/18 04:57:59;;;;;;;116.72;25.05;;;;;;;5.37;100.00;96191.84;5033151;28;20037;-78
2021/10/18 05:00:27;;;;;;;133.02;25.63;;;;;;;5.41;100.00;96192.22;5033587;28;20045;-79
2021/10/18 05:02:53;;;;;;;76.85;26.20;;;;;;;5.45;100.00;96193.38;5014911;28;20069;-78
2021/10/18 05:05:19;;;;;;;102.35;26.08;;;;;;;5.41;100.00;96192.22;5020353;28;20049;-79
2021/10/18 05:07:45;;;;;;;116.40;26.15;;;;;;;5.50;100.00;96190.91;5016049;28;20049;-79
2021/10/18 05:10:13;;;;;;;113.10;25.13;;;;;;;5.46;100.00;96205.41;5032595;28;20037;-78
2021/10/18 05:12:39;;;;;;;99.20;26.17;;;;;;;5.45;100.00;96209.06;5047197;28;20072;-78
2021/10/18 05:15:07;;;;;;;89.68;26.10;;;;;;;5.36;100.00;96206.72;5028008;28;20064;-78
2021/10/18 05:17:33;;;;;;;80.85;23.98;;;;;;;5.43;100.00;96211.06;5023558;28;20046;-78
2021/10/18 05:19:59;;;;;;;193.52;26.60;;;;;;;5.32;100.00;96204.78;5013963;28;20071;-79
2021/10/18 05:22:25;;;;;;;136.30;25.60;;;;;;;5.34;100.00;96207.97;5031497;28;20033;-78
2021/10/18 05:24:50;;;;;;;117.70;24.83;;;;;;;5.37;100.00;96203.09;5023831;28;20100;-77
2021/10/18 05:27:16;;;;;;;129.60;25.65;;;;;;;5.44;100.00;96207.44;5014332;28;20160;-78
2021/10/18 05:29:42;;;;;;;260.92;27.98;;;;;;;5.30;100.00;96205.00;5015372;28;20049;-78
2021/10/18 05:32:07;;;;;;;265.83;28.73;;;;;;;5.27;100.00;96197.59;5028046;28;20056;-78
2021/10/18 05:34:33;;;;;;;228.25;27.67;;;;;;;5.26;100.00;96196.00;5029902;28;20044;-79
2021/10/18 05:36:59;;;;;;;260.55;28.88;;;;;;;5.18;100.00;96204.13;5028496;28;20597;-79
2021/10/18 05:39:24;;;;;;;121.55;27.00;;;;;;;5.28;100.00;96204.41;5030525;28;20068;-78
2021/10/18 05:41:50;;;;;;;145.50;25.08;;;;;;;5.34;100.00;96213.19;5027321;28;20071;-79
2021/10/18 05:44:15;;;;;;;77.93;23.50;;;;;;;5.46;100.00;96210.63;5026806;28;20495;-78
2021/10/18 05:46:41;;;;;;;72.00;21.00;;;;;;;5.62;100.00;96225.72;5016811;28;20710;-79
2021/10/18 05:49:06;;;;;;;101.13;20.10;;;;;;;5.59;100.00;96231.38;5031133;28;20049;-78
2021/10/18 05:51:32;;;;;;;98.70;20.45;;;;;;;5.72;100.00;96231.19;5030519;28;20041;-79
2021/10/18 05:53:59;;;;;;;153.43;21.00;;;;;;;5.61;100.00;96234.53;5019652;28;20046;-78
2021/10/18 05:56:25;;;;;;;78.45;20.33;;;;;;;5.57;100.00;96249.06;5024281;28;20098;-78
2021/10/18 05:58:50;;;;;;;67.15;19.48;;;;;;;5.46;100.00;96247.16;5028210;28;20064;-78
2021/10/18 06:01:16;;;;;;;65.85;21.08;;;;;;;5.52;100.00;96243.72;5029678;28;20766;-78
2021/10/18 06:03:42;;;;;;;63.97;19.67;;;;;;;5.60;100.00;96251.22;5026356;28;20041;-78
2021/10/18 06:06:10;;;;;;;60.40;22.05;;;;;;;5.70;100.00;96248.91;5027395;28;20048;-77
2021/10/18 06:08:35;;;;;;;65.47;20.85;;;;;;;5.77;100.00;96253.25;5030885;28;20045;-78
2021/10/18 06:11:03;;;;;;;68.55;22.00;;;;;;;5.81;100.00;96249.19;5029801;28;20053;-78
2021/10/18 06:13:30;;;;;;;82.63;19.65;;;;;;;5.73;100.00;96258.09;5023358;28;20164;-78
2021/10/18 06:15:55;;;;;;;63.90;21.42;;;;;;;5.79;100.00;96261.66;4999300;28;20569;-79
2021/10/18 06:18:22;;;;;;;63.95;23.50;;;;;;;5.71;100.00;96270.59;5011098;28;20046;-78
2021/10/18 06:20:52;;;;;;;81.35;24.05;;;;;;;5.60;100.00;96274.72;5011982;28;20042;-79
2021/10/18 06:23:20;;;;;;;101.47;25.50;;;;;;;5.50;100.00;96269.22;5023752;28;20046;-78
2021/10/18 06:25:46;;;;;;;92.38;26.35;;;;;;;5.44;100.00;96264.88;5036140;28;20041;-78
2021/10/18 06:28:13;;;;;;;81.82;26.65;;;;;;;5.47;100.00;96269.66;5038519;28;20041;-78
2021/10/18 06:30:38;;;;;;;92.68;26.05;;;;;;;5.50;100.00;96264.81;5028814;28;20045;-78
2021/10/18 06:33:04;;;;;;;83.47;26.08;;;;;;;5.54;100.00;96273.00;5028864;28;20054;-78
2021/10/18 06:35:33;;;;;;;77.05;24.92;;;;;;;5.58;100.00;96287.22;5012712;28;20104;-78
2021/10/18 06:37:58;;;;;;;93.68;25.85;;;;;;;5.62;100.00;96277.94;5028559;28;20135;-78
2021/10/18 06:40:25;;;;;;;90.03;23.73;;;;;;;5.58;100.00;96282.00;5008229;28;20526;-78
2021/10/18 06:42:50;;;;;;;120.57;24.75;;;;;;;5.48;100.00;96284.31;5030808;28;20073;-77
2021/10/18 06:45:16;;;;;;;104.25;25.90;;;;;;;5.47;100.00;96274.88;5030152;28;20570;-78
2021/10/18 06:47:42;;;;;;;83.80;23.05;;;;;;;5.46;100.00;96289.75;5030109;28;20041;-78
2021/10/18 06:50:09;;;;;;;67.20;24.15;;;;;;;5.53;100.00;96294.88;5031110;28;20194;-80
2021/10/18 06:52:39;;;;;;;71.53;23.40;;;;;;;5.84;100.00;96303.59;5031572;28;20068;-80
2021/10/18 06:55:07;;;;;;;78.70;23.92;;;;;;;5.96;100.00;96309.69;5021716;28;20052;-78
2021/10/18 06:57:32;;;;;;;79.05;22.48;;;;;;;5.97;100.00;96300.84;5011416;28;20048;-81
2021/10/18 06:59:58;;;;;;;70.90;23.88;;;;;;;5.93;100.00;96299.66;5030961;28;20041;-78
2021/10/18 07:02:27;;;;;;;74.40;22.95;;;;;;;5.90;100.00;96300.91;5029877;28;20528;-78
2021/10/18 07:04:53;;;;;;;71.68;24.45;;;;;;;5.94;100.00;96311.72;5025689;28;20487;-78
2021/10/18 07:07:19;;;;;;;76.30;25.30;;;;;;;5.95;100.00;96318.53;5029001;28;20072;-78
2021/10/18 07:09:45;;;;;;;72.90;23.77;;;;;;;6.01;100.00;96316.88;5029714;28;20037;-78
2021/10/18 07:12:11;;;;;;;72.60;23.13;;;;;;;5.99;100.00;96306.66;5028620;28;20046;-77
2021/10/18 07:14:37;;;;;;;69.13;24.17;;;;;;;5.98;100.00;96312.91;5026932;28;20076;-77
2021/10/18 07:17:03;;;;;;;73.13;24.17;;;;;;;6.02;100.00;96329.72;5034331;28;20100;-78
2021/10/18 07:19:29;;;;;;;73.22;24.70;;;;;;;6.11;100.00;96326.81;5037976;28;20045;-77
2021/10/18 07:21:55;;;;;;;80.22;25.65;;;;;;;6.15;100.00;96327.97;5023594;28;20557;-78
2021/10/18 07:24:20;;;;;;;71.13;23.95;;;;;;;6.14;100.00;96326.38;5027436;28;20038;-77
2021/10/18 07:26:50;;;;;;;69.38;24.63;;;;;;;6.07;100.00;96327.25;5030261;28;20045;-82
2021/10/18 07:29:21;;;;;;;79.95;25.25;;;;;;;6.19;100.00;96329.13;5034894;28;20072;-78
2021/10/18 07:31:47;;;;;;;73.00;25.23;;;;;;;6.26;100.00;96329.81;5026908;28;20468;-77
2021/10/18 07:34:15;;;;;;;77.00;25.45;;;;;;;6.33;100.00;96335.75;5007154;28;20049;-78
2021/10/18 07:36:51;;;;;;;66.13;24.52;;;;;;;6.27;100.00;96341.09;5012568;28;20077;-78
2021/10/18 07:39:20;;;;;;;71.82;26.08;;;;;;;6.35;100.00;96346.00;5029656;28;20045;-78
2021/10/18 07:41:50;;;;;;;72.03;25.88;;;;;;;6.33;100.00;96340.19;5031860;28;20049;-78
2021/10/18 07:44:16;;;;;;;73.38;24.65;;;;;;;6.40;100.00;96346.94;5030949;28;20079;-78
2021/10/18 07:46:42;;;;;;;83.65;25.80;;;;;;;6.24;100.00;96352.78;5013565;28;20049;-78
2021/10/18 07:49:08;;;;;;;73.55;24.83;;;;;;;6.37;100.00;96351.81;5029840;28;20044;-78
2021/10/18 07:51:34;;;;;;;79.05;24.63;;;;;;;6.32;100.00;96349.88;5027747;28;20069;-79
2021/10/18 07:54:02;;;;;;;75.45;25.27;;;;;;;6.17;100.00;96346.84;5011787;28;20049;-77
2021/10/18 07:56:27;;;;;;;70.28;23.17;;;;;;;6.62;100.00;96349.03;5030486;28;20045;-78
2021/10/18 07:58:53;;;;;;;74.85;24.13;;;;;;;6.65;100.00;96343.41;5031857;28;20040;-78
2021/10/18 08:01:18;;;;;;;74.85;23.40;;;;;;;6.69;100.00;96349.75;5022247;28;20107;-78
2021/10/18 08:03:44;;;;;;;76.55;25.20;;;;;;;6.84;100.00;96345.91;5038207;28;20060;-77
2021/10/18 08:06:09;;;;;;;68.20;23.45;;;;;;;6.84;100.00;96345.91;5012385;28;20048;-78
2021/10/18 08:08:43;;;;;;;66.07;22.67;;;;;;;6.83;100.00;96352.19;5030288;28;20103;-76
2021/10/18 08:11:09;;;;;;;66.77;22.97;;;;;;;6.84;100.00;96346.72;5026260;28;20095;-77
2021/10/18 08:13:35;;;;;;;67.45;21.98;;;;;;;6.86;100.00;96349.13;5031842;28;20042;-77
2021/10/18 08:16:00;;;;;;;70.75;20.63;;;;;;;6.84;100.00;96351.16;5034903;28;20060;-77
2021/10/18 08:18:26;;;;;;;69.32;22.63;;;;;;;6.88;100.00;96352.28;5029636;28;20049;-77
2021/10/18 08:20:51;;;;;;;60.92;20.17;;;;;;;6.93;100.00;96349.81;5027863;28;20091;-77
2021/10/18 08:23:17;;;;;;;62.65;20.05;;;;;;;6.84;100.00;96356.38;5031322;28;20038;-77
2021/10/18 08:25:43;;;;;;;78.60;23.65;;;;;;;6.86;100.00;96364.81;5022738;28;20045;-77
2021/10/18 08:28:09;;;;;;;70.57;24.45;;;;;;;6.76;100.00;96366.16;5031638;28;20045;-78
2021/10/18 08:30:36;;;;;;;70.45;24.10;;;;;;;6.68;100.00;96358.63;5032334;28;20037;-77
2021/10/18 08:33:01;;;;;;;65.20;24.35;;;;;;;6.70;100.00;96361.03;5032366;28;20042;-79
2021/10/18 08:35:27;;;;;;;65.63;23.13;;;;;;;6.72;100.00;96359.78;5033820;28;20044;-79
2021/10/18 08:40:45;;;;;;;68.15;22.92;;;;;;;7.05;100.00;96368.97;5030833;28;20489;-77
2021/10/18 08:45:40;;;;;;;63.30;22.20;;;;;;;7.26;100.00;96374.66;5029227;28;20130;-77
2021/10/18 08:48:09;;;;;;;58.00;22.33;;;;;;;7.37;100.00;96376.50;5027716;28;20045;-77
2021/10/18 08:50:36;;;;;;;65.97;23.35;;;;;;;7.36;100.00;96372.28;5024396;28;20071;-77
2021/10/18 08:53:03;;;;;;;64.85;21.88;;;;;;;7.47;100.00;96375.94;5018354;28;20049;-77
2021/10/18 08:55:28;;;;;;;62.60;22.67;;;;;;;7.37;100.00;96375.69;5040614;28;20061;-79
2021/10/18 08:57:54;;;;;;;67.72;24.33;;;;;;;7.06;100.00;96370.53;5044011;28;20064;-77
2021/10/18 09:00:46;;;;;;;56.60;22.02;;;;;;;7.17;100.00;96376.81;5030504;28;20052;-77
2021/10/18 09:03:17;;;;;;;60.60;22.48;;;;;;;7.23;100.00;96380.38;5022054;28;20124;-78
2021/10/18 09:05:44;;;;;;;71.10;23.88;;;;;;;7.01;100.00;96383.53;5033577;28;20056;-78
2021/10/18 09:08:31;;;;;;;67.97;24.20;;;;;;;7.34;100.00;96381.38;5031240;28;20046;-78
2021/10/18 09:11:02;;;;;;;67.07;23.52;;;;;;;7.15;100.00;96373.63;5039532;28;20045;-78
2021/10/18 09:13:28;;;;;;;66.40;24.90;;;;;;;7.48;100.00;96381.97;5028459;28;20140;-78
2021/10/18 09:15:53;;;;;;;68.00;24.52;;;;;;;7.49;100.00;96378.34;5027214;28;20116;-79
2021/10/18 09:18:19;;;;;;;65.28;23.65;;;;;;;7.32;100.00;96379.00;5030908;28;20434;-77
2021/10/18 09:20:46;;;;;;;65.43;23.95;;;;;;;7.42;100.00;96383.66;5032123;28;20418;-78
2021/10/18 09:23:27;;;;;;;69.80;22.75;;;;;;;7.45;100.00;96384.00;5024867;28;20046;-78
2021/10/18 09:26:06;;;;;;;57.70;22.05;;;;;;;7.95;100.00;96381.94;5016486;28;20102;-78
2021/10/18 09:28:32;;;;;;;60.13;22.45;;;;;;;7.84;100.00;96380.13;5022039;28;20038;-77
2021/10/18 09:30:58;;;;;;;62.15;23.35;;;;;;;7.57;100.00;96375.34;5017502;28;20046;-79
2021/10/18 09:33:37;;;;;;;61.67;22.95;;;;;;;7.61;100.00;96382.53;5034180;28;20040;-78
2021/10/18 09:36:07;;;;;;;53.33;21.92;;;;;;;8.10;99.60;96377.00;5033137;28;20033;-78
2021/10/18 09:38:33;;;;;;;54.92;21.33;;;;;;;8.33;98.03;96377.94;5033099;28;20034;-82
2021/10/18 09:41:01;;;;;;;52.10;20.45;;;;;;;8.33;98.56;96377.94;5033831;28;20048;-77
2021/10/18 09:43:45;;;;;;;62.53;22.75;;;;;;;8.10;99.90;96374.38;5031649;28;20091;-81
2021/10/18 09:46:36;;;;;;;54.93;21.37;;;;;;;8.36;98.19;96377.50;5019976;28;20099;-80
2021/10/18 10:53:28;;;;;;;50.15;20.77;;;;;;;8.61;97.66;96353.56;5028810;28;20037;-77
2021/10/18 10:55:59;;;;;;;60.87;21.60;;;;;;;8.42;99.78;96355.56;5021136;28;20044;-77
2021/10/18 10:58:35;;;;;;;56.95;20.63;;;;;;;8.78;97.99;96355.44;5010969;28;20495;-77
2021/10/18 11:01:02;;;;;;;52.78;21.42;;;;;;;8.79;96.08;96349.97;5029388;28;20049;-77
2021/10/18 11:03:39;;;;;;;47.30;19.55;;;;;;;9.36;94.63;96348.22;5026971;28;20519;-77
2021/10/18 11:06:15;;;;;;;49.03;19.33;;;;;;;9.60;92.86;96348.03;5015433;28;20041;-78
2021/10/18 11:08:43;;;;;;;48.70;19.63;;;;;;;10.30;92.35;96345.72;5033748;28;20053;-76
2021/10/18 11:11:09;;;;;;;45.40;18.90;;;;;;;11.71;84.09;96342.94;5027478;28;20514;-80
2021/10/18 11:13:51;;;;;;;43.65;18.92;;;;;;;11.07;84.62;96343.84;5028758;28;20037;-77
2021/10/18 11:16:23;;;;;;;51.60;20.52;;;;;;;10.36;88.12;96334.25;5019754;28;20057;-77
2021/10/18 11:18:55;;;;;;;47.35;19.13;;;;;;;11.02;85.06;96335.88;5028013;28;20404;-77
2021/10/18 11:21:26;;;;;;;42.47;18.88;;;;;;;9.76;88.13;96331.41;5029195;28;20045;-78
2021/10/18 11:24:05;;;;;;;46.55;19.95;;;;;;;10.17;89.03;96321.38;5018335;28;20104;-77
2021/10/18 11:26:36;;;;;;;41.63;18.40;;;;;;;11.69;81.29;96328.41;5015827;28;20041;-77
2021/10/18 11:29:04;;;;;;;42.15;18.90;;;;;;;13.19;77.37;96311.88;5033049;28;20120;-78
2021/10/18 11:31:39;;;;;;;46.15;19.58;;;;;;;12.75;74.18;96307.13;5012855;28;20052;-77
2021/10/18 11:34:04;;;;;;;45.22;19.08;;;;;;;13.42;73.47;96310.56;4998950;28;20045;-78
2021/10/18 11:36:31;;;;;;;37.72;17.60;;;;;;;13.95;73.08;96306.69;5030187;28;20041;-77
2021/10/18 11:39:11;;;;;;;36.58;17.70;;;;;;;14.75;67.96;96302.31;5024310;28;20048;-77
2021/10/18 11:42:01;;;;;;;35.95;16.80;;;;;;;14.96;66.48;96309.03;5010705;28;20048;-78
2021/10/18 11:44:38;;;;;;;34.05;16.45;;;;;;;15.14;64.47;96309.41;5031596;28;20407;-78
2021/10/18 11:47:05;;;;;;;31.60;15.80;;;;;;;15.83;61.74;96303.97;5023782;28;20049;-79
2021/10/18 11:49:30;;;;;;;36.20;16.33;;;;;;;15.91;63.75;96306.00;5022899;28;20038;-78
2021/10/18 11:51:56;;;;;;;32.58;16.50;;;;;;;15.28;62.54;96305.03;5035992;28;20111;-79
2021/10/18 11:54:22;;;;;;;29.67;16.10;;;;;;;16.32;59.25;96294.06;5022894;28;20095;-79
2021/10/18 11:56:54;;;;;;;32.80;15.88;;;;;;;16.34;59.46;96298.03;5029914;28;20049;-79
2021/10/18 11:59:20;;;;;;;33.47;16.95;;;;;;;16.00;64.84;96293.69;5026485;28;20499;-78
2021/10/18 12:01:45;;;;;;;35.40;18.17;;;;;;;16.95;60.79;96290.25;5025008;28;20042;-78
2021/10/18 12:04:11;;;;;;;34.45;17.30;;;;;;;15.66;61.84;96299.91;5033599;28;20041;-79
2021/10/18 12:06:46;;;;;;;34.13;18.00;;;;;;;17.01;58.91;96283.78;5031014;28;20045;-78
2021/10/18 12:09:25;;;;;;;35.92;18.52;;;;;;;18.22;54.69;96287.41;5031139;28;20118;-78
2021/10/18 12:11:53;;;;;;;35.92;18.08;;;;;;;16.84;56.51;96278.16;5034227;28;20099;-78
2021/10/18 12:14:19;;;;;;;35.58;17.75;;;;;;;17.08;57.86;96280.72;5040886;28;20048;-79
2021/10/18 12:16:45;;;;;;;38.30;18.88;;;;;;;17.67;57.49;96278.38;5014243;28;20041;-78
2021/10/18 12:19:11;;;;;;;37.05;19.30;;;;;;;17.52;57.12;96278.66;5038395;28;20049;-78
2021/10/18 12:21:39;;;;;;;36.28;19.92;;;;;;;16.37;59.81;96280.72;5032658;28;20495;-78
2021/10/18 12:24:13;;;;;;;35.65;18.42;;;;;;;16.69;57.19;96277.31;5022054;28;20038;-80
2021/10/18 12:26:41;;;;;;;33.33;18.52;;;;;;;17.33;57.74;96274.19;5025615;28;20477;-77